sensor_id;sensor_type;location;lat;lon;timestamp;temperature;humidity
6627;DHT22;3349;49.830;8.748;2023-06-19T00:00:24;22.10;58.60
6627;DHT22;3349;49.830;8.748;2023-06-19T00:02:51;22.00;58.60
6627;DHT22;3349;49.830;8.748;2023-06-19T00:05:18;22.00;58.50
6627;DHT22;3349;49.830;8.748;2023-06-19T00:07:48;22.00;58.60
6627;DHT22;3349;49.830;8.748;2023-06-19T00:10:17;22.00;58.60
6627;DHT22;3349;49.830;8.748;2023-06-19T00:12:43;22.00;58.60
6627;DHT22;3349;49.830;8.748;2023-06-19T00:15:11;22.00;58.60
6627;DHT22;3349;49.830;8.748;2023-06-19T00:17:38;21.90;59.60
6627;DHT22;3349;49.830;8.748;2023-06-19T00:20:05;21.90;59.30
6627;DHT22;3349;49.830;8.748;2023-06-19T00:22:32;21.90;59.50
6627;DHT22;3349;49.830;8.748;2023-06-19T00:24:59;21.90;60.40
6627;DHT22;3349;49.830;8.748;2023-06-19T00:27:27;21.80;60.50
6627;DHT22;3349;49.830;8.748;2023-06-19T00:29:55;21.80;60.20
6627;DHT22;3349;49.830;8.748;2023-06-19T00:32:27;21.80;60.00
6627;DHT22;3349;49.830;8.748;2023-06-19T00:34:53;21.80;59.70
6627;DHT22;3349;49.830;8.748;2023-06-19T00:37:20;21.70;59.80
6627;DHT22;3349;49.830;8.748;2023-06-19T00:39:47;21.70;60.20
6627;DHT22;3349;49.830;8.748;2023-06-19T00:42:14;21.60;60.30
6627;DHT22;3349;49.830;8.748;2023-06-19T00:44:42;21.60;60.40
6627;DHT22;3349;49.830;8.748;2023-06-19T00:47:09;21.50;60.50
6627;DHT22;3349;49.830;8.748;2023-06-19T00:49:36;21.40;60.00
6627;DHT22;3349;49.830;8.748;2023-06-19T00:52:04;21.30;60.90
6627;DHT22;3349;49.830;8.748;2023-06-19T00:54:31;21.20;61.20
6627;DHT22;3349;49.830;8.748;2023-06-19T00:56:58;21.10;61.90
6627;DHT22;3349;49.830;8.748;2023-06-19T00:59:26;21.00;62.70
6627;DHT22;3349;49.830;8.748;2023-06-19T01:01:56;21.00;63.90
6627;DHT22;3349;49.830;8.748;2023-06-19T01:04:23;20.90;65.00
6627;DHT22;3349;49.830;8.748;2023-06-19T01:06:54;20.90;64.90
6627;DHT22;3349;49.830;8.748;2023-06-19T01:09:27;20.80;65.40
6627;DHT22;3349;49.830;8.748;2023-06-19T01:11:59;20.70;65.50
6627;DHT22;3349;49.830;8.748;2023-06-19T01:14:31;20.60;65.20
6627;DHT22;3349;49.830;8.748;2023-06-19T01:17:00;20.50;65.30
6627;DHT22;3349;49.830;8.748;2023-06-19T01:19:27;20.40;66.10
6627;DHT22;3349;49.830;8.748;2023-06-19T01:21:54;20.40;64.70
6627;DHT22;3349;49.830;8.748;2023-06-19T01:24:22;20.30;65.40
6627;DHT22;3349;49.830;8.748;2023-06-19T01:26:49;20.30;65.80
6627;DHT22;3349;49.830;8.748;2023-06-19T01:29:16;20.40;64.30
6627;DHT22;3349;49.830;8.748;2023-06-19T01:31:50;20.40;64.80
6627;DHT22;3349;49.830;8.748;2023-06-19T01:34:20;20.30;65.20
6627;DHT22;3349;49.830;8.748;2023-06-19T01:36:48;20.30;64.90
6627;DHT22;3349;49.830;8.748;2023-06-19T01:39:16;20.20;64.20
6627;DHT22;3349;49.830;8.748;2023-06-19T01:41:45;20.20;65.00
6627;DHT22;3349;49.830;8.748;2023-06-19T01:44:13;20.20;65.40
6627;DHT22;3349;49.830;8.748;2023-06-19T01:46:39;20.10;65.90
6627;DHT22;3349;49.830;8.748;2023-06-19T01:49:07;20.10;65.90
6627;DHT22;3349;49.830;8.748;2023-06-19T01:51:35;20.10;65.90
6627;DHT22;3349;49.830;8.748;2023-06-19T01:54:02;20.00;65.80
6627;DHT22;3349;49.830;8.748;2023-06-19T01:56:29;19.90;67.00
6627;DHT22;3349;49.830;8.748;2023-06-19T01:58:57;19.90;66.50
6627;DHT22;3349;49.830;8.748;2023-06-19T02:01:25;19.80;66.80
6627;DHT22;3349;49.830;8.748;2023-06-19T02:03:51;19.80;67.10
6627;DHT22;3349;49.830;8.748;2023-06-19T02:06:18;19.80;67.30
6627;DHT22;3349;49.830;8.748;2023-06-19T02:08:46;19.80;68.10
6627;DHT22;3349;49.830;8.748;2023-06-19T02:11:13;19.70;68.20
6627;DHT22;3349;49.830;8.748;2023-06-19T02:13:40;19.80;64.40
6627;DHT22;3349;49.830;8.748;2023-06-19T02:16:08;19.90;62.40
6627;DHT22;3349;49.830;8.748;2023-06-19T02:18:35;19.90;60.90
6627;DHT22;3349;49.830;8.748;2023-06-19T02:21:01;20.10;56.20
6627;DHT22;3349;49.830;8.748;2023-06-19T02:23:28;20.50;54.40
6627;DHT22;3349;49.830;8.748;2023-06-19T02:25:55;20.80;53.20
6627;DHT22;3349;49.830;8.748;2023-06-19T02:28:21;21.10;52.30
6627;DHT22;3349;49.830;8.748;2023-06-19T02:30:48;21.20;51.70
6627;DHT22;3349;49.830;8.748;2023-06-19T02:33:16;21.30;51.60
6627;DHT22;3349;49.830;8.748;2023-06-19T02:35:43;21.40;51.00
6627;DHT22;3349;49.830;8.748;2023-06-19T02:38:10;21.50;50.40
6627;DHT22;3349;49.830;8.748;2023-06-19T02:40:38;21.80;50.10
6627;DHT22;3349;49.830;8.748;2023-06-19T02:43:04;21.70;50.20
6627;DHT22;3349;49.830;8.748;2023-06-19T02:45:31;21.80;50.10
6627;DHT22;3349;49.830;8.748;2023-06-19T02:47:58;21.90;50.70
6627;DHT22;3349;49.830;8.748;2023-06-19T02:50:26;22.00;50.70
6627;DHT22;3349;49.830;8.748;2023-06-19T02:52:53;22.00;51.10
6627;DHT22;3349;49.830;8.748;2023-06-19T02:55:19;22.00;51.40
6627;DHT22;3349;49.830;8.748;2023-06-19T02:57:46;22.10;51.80
6627;DHT22;3349;49.830;8.748;2023-06-19T03:00:14;22.00;52.10
6627;DHT22;3349;49.830;8.748;2023-06-19T03:02:40;22.10;52.00
6627;DHT22;3349;49.830;8.748;2023-06-19T03:05:09;22.10;51.90
6627;DHT22;3349;49.830;8.748;2023-06-19T03:07:37;22.10;52.00
6627;DHT22;3349;49.830;8.748;2023-06-19T03:10:04;22.10;52.00
6627;DHT22;3349;49.830;8.748;2023-06-19T03:12:31;22.00;52.10
6627;DHT22;3349;49.830;8.748;2023-06-19T03:14:58;22.00;52.20
6627;DHT22;3349;49.830;8.748;2023-06-19T03:17:25;21.90;52.40
6627;DHT22;3349;49.830;8.748;2023-06-19T03:19:51;21.90;52.40
6627;DHT22;3349;49.830;8.748;2023-06-19T03:22:20;21.90;52.50
6627;DHT22;3349;49.830;8.748;2023-06-19T03:24:48;21.90;52.60
6627;DHT22;3349;49.830;8.748;2023-06-19T03:27:15;21.90;52.80
6627;DHT22;3349;49.830;8.748;2023-06-19T03:29:41;21.90;53.20
6627;DHT22;3349;49.830;8.748;2023-06-19T03:32:08;21.90;53.40
6627;DHT22;3349;49.830;8.748;2023-06-19T03:34:35;21.90;53.30
6627;DHT22;3349;49.830;8.748;2023-06-19T03:37:01;21.90;53.50
6627;DHT22;3349;49.830;8.748;2023-06-19T03:39:28;21.90;53.70
6627;DHT22;3349;49.830;8.748;2023-06-19T03:41:56;21.80;54.00
6627;DHT22;3349;49.830;8.748;2023-06-19T03:44:23;21.80;54.20
6627;DHT22;3349;49.830;8.748;2023-06-19T03:46:49;21.80;54.30
6627;DHT22;3349;49.830;8.748;2023-06-19T03:49:16;21.80;54.50
6627;DHT22;3349;49.830;8.748;2023-06-19T03:51:43;21.80;54.40
6627;DHT22;3349;49.830;8.748;2023-06-19T03:54:10;21.80;54.50
6627;DHT22;3349;49.830;8.748;2023-06-19T03:56:37;21.80;54.50
6627;DHT22;3349;49.830;8.748;2023-06-19T03:59:05;21.80;54.30
6627;DHT22;3349;49.830;8.748;2023-06-19T04:01:32;21.80;54.30
6627;DHT22;3349;49.830;8.748;2023-06-19T04:03:58;21.80;54.10
6627;DHT22;3349;49.830;8.748;2023-06-19T04:06:25;21.80;53.90
6627;DHT22;3349;49.830;8.748;2023-06-19T04:08:52;21.90;54.40
6627;DHT22;3349;49.830;8.748;2023-06-19T04:11:19;21.90;53.60
6627;DHT22;3349;49.830;8.748;2023-06-19T04:13:46;21.80;53.60
6627;DHT22;3349;49.830;8.748;2023-06-19T04:16:14;21.90;53.90
6627;DHT22;3349;49.830;8.748;2023-06-19T04:18:40;21.90;54.00
6627;DHT22;3349;49.830;8.748;2023-06-19T04:21:07;21.70;54.20
6627;DHT22;3349;49.830;8.748;2023-06-19T04:23:34;21.90;54.50
6627;DHT22;3349;49.830;8.748;2023-06-19T04:26:01;21.90;54.80
6627;DHT22;3349;49.830;8.748;2023-06-19T04:28:28;21.90;55.00
6627;DHT22;3349;49.830;8.748;2023-06-19T04:30:55;21.90;55.30
6627;DHT22;3349;49.830;8.748;2023-06-19T04:33:27;21.90;55.50
6627;DHT22;3349;49.830;8.748;2023-06-19T04:35:54;21.90;55.80
6627;DHT22;3349;49.830;8.748;2023-06-19T04:38:20;21.80;56.20
6627;DHT22;3349;49.830;8.748;2023-06-19T04:40:49;21.70;56.40
6627;DHT22;3349;49.830;8.748;2023-06-19T04:43:16;21.80;56.70
6627;DHT22;3349;49.830;8.748;2023-06-19T04:45:43;21.80;57.10
6627;DHT22;3349;49.830;8.748;2023-06-19T04:48:10;21.80;57.40
6627;DHT22;3349;49.830;8.748;2023-06-19T04:50:38;21.70;57.80
6627;DHT22;3349;49.830;8.748;2023-06-19T04:53:05;21.70;57.90
6627;DHT22;3349;49.830;8.748;2023-06-19T04:55:32;21.80;58.00
6627;DHT22;3349;49.830;8.748;2023-06-19T04:57:59;21.80;58.40
6627;DHT22;3349;49.830;8.748;2023-06-19T05:00:25;21.80;58.00
6627;DHT22;3349;49.830;8.748;2023-06-19T05:02:53;21.90;58.20
6627;DHT22;3349;49.830;8.748;2023-06-19T05:05:23;21.90;58.10
6627;DHT22;3349;49.830;8.748;2023-06-19T05:07:52;22.00;58.20
6627;DHT22;3349;49.830;8.748;2023-06-19T05:10:18;22.00;58.10
6627;DHT22;3349;49.830;8.748;2023-06-19T05:12:45;22.10;58.40
6627;DHT22;3349;49.830;8.748;2023-06-19T05:15:12;22.00;58.50
6627;DHT22;3349;49.830;8.748;2023-06-19T05:17:39;22.10;58.60
6627;DHT22;3349;49.830;8.748;2023-06-19T05:20:06;22.00;58.50
6627;DHT22;3349;49.830;8.748;2023-06-19T05:22:33;22.10;58.60
6627;DHT22;3349;49.830;8.748;2023-06-19T05:25:02;22.10;58.60
6627;DHT22;3349;49.830;8.748;2023-06-19T05:27:28;22.10;58.60
6627;DHT22;3349;49.830;8.748;2023-06-19T05:29:55;22.10;58.60
6627;DHT22;3349;49.830;8.748;2023-06-19T05:32:22;22.10;58.80
6627;DHT22;3349;49.830;8.748;2023-06-19T05:34:48;22.10;59.50
6627;DHT22;3349;49.830;8.748;2023-06-19T05:37:16;22.10;59.60
6627;DHT22;3349;49.830;8.748;2023-06-19T05:39:43;22.20;59.60
6627;DHT22;3349;49.830;8.748;2023-06-19T05:42:11;22.20;59.80
6627;DHT22;3349;49.830;8.748;2023-06-19T05:44:37;22.30;59.80
6627;DHT22;3349;49.830;8.748;2023-06-19T05:47:06;22.40;59.50
6627;DHT22;3349;49.830;8.748;2023-06-19T05:49:32;22.40;59.60
6627;DHT22;3349;49.830;8.748;2023-06-19T05:51:59;22.40;59.70
6627;DHT22;3349;49.830;8.748;2023-06-19T05:54:26;22.40;59.80
6627;DHT22;3349;49.830;8.748;2023-06-19T05:56:53;22.40;59.80
6627;DHT22;3349;49.830;8.748;2023-06-19T05:59:22;22.40;59.80
6627;DHT22;3349;49.830;8.748;2023-06-19T06:01:48;22.50;59.50
6627;DHT22;3349;49.830;8.748;2023-06-19T06:04:16;22.50;59.70
6627;DHT22;3349;49.830;8.748;2023-06-19T06:06:43;22.50;60.00
6627;DHT22;3349;49.830;8.748;2023-06-19T06:09:10;22.60;59.90
6627;DHT22;3349;49.830;8.748;2023-06-19T06:11:37;22.70;60.10
6627;DHT22;3349;49.830;8.748;2023-06-19T06:14:04;22.70;60.00
6627;DHT22;3349;49.830;8.748;2023-06-19T06:16:32;22.80;59.40
6627;DHT22;3349;49.830;8.748;2023-06-19T06:18:59;22.70;59.70
6627;DHT22;3349;49.830;8.748;2023-06-19T06:21:25;22.80;59.30
6627;DHT22;3349;49.830;8.748;2023-06-19T06:23:52;22.80;59.50
6627;DHT22;3349;49.830;8.748;2023-06-19T06:26:20;22.80;59.60
6627;DHT22;3349;49.830;8.748;2023-06-19T06:28:47;22.80;59.30
6627;DHT22;3349;49.830;8.748;2023-06-19T06:31:13;22.80;60.10
6627;DHT22;3349;49.830;8.748;2023-06-19T06:33:42;22.90;60.00
6627;DHT22;3349;49.830;8.748;2023-06-19T06:36:09;22.90;59.90
6627;DHT22;3349;49.830;8.748;2023-06-19T06:38:36;22.90;59.90
6627;DHT22;3349;49.830;8.748;2023-06-19T06:41:02;23.00;59.40
6627;DHT22;3349;49.830;8.748;2023-06-19T06:43:29;23.00;59.50
6627;DHT22;3349;49.830;8.748;2023-06-19T06:45:56;23.00;59.40
6627;DHT22;3349;49.830;8.748;2023-06-19T06:48:22;23.10;59.50
6627;DHT22;3349;49.830;8.748;2023-06-19T06:50:51;23.10;59.50
6627;DHT22;3349;49.830;8.748;2023-06-19T06:53:24;23.10;59.50
6627;DHT22;3349;49.830;8.748;2023-06-19T06:55:51;23.10;59.50
6627;DHT22;3349;49.830;8.748;2023-06-19T06:58:17;23.10;59.80
6627;DHT22;3349;49.830;8.748;2023-06-19T07:00:44;23.20;60.10
6627;DHT22;3349;49.830;8.748;2023-06-19T07:03:11;23.30;59.70
6627;DHT22;3349;49.830;8.748;2023-06-19T07:05:38;23.40;59.70
6627;DHT22;3349;49.830;8.748;2023-06-19T07:08:06;23.50;59.80
6627;DHT22;3349;49.830;8.748;2023-06-19T07:10:33;23.50;59.90
6627;DHT22;3349;49.830;8.748;2023-06-19T07:13:00;23.60;59.90
6627;DHT22;3349;49.830;8.748;2023-06-19T07:15:26;23.60;58.60
6627;DHT22;3349;49.830;8.748;2023-06-19T07:17:53;23.70;58.10
6627;DHT22;3349;49.830;8.748;2023-06-19T07:20:20;23.90;58.00
6627;DHT22;3349;49.830;8.748;2023-06-19T07:22:47;24.00;57.90
6627;DHT22;3349;49.830;8.748;2023-06-19T07:25:17;24.10;57.20
6627;DHT22;3349;49.830;8.748;2023-06-19T07:27:44;24.10;56.80
6627;DHT22;3349;49.830;8.748;2023-06-19T07:30:12;24.30;56.70
6627;DHT22;3349;49.830;8.748;2023-06-19T07:32:39;24.40;56.40
6627;DHT22;3349;49.830;8.748;2023-06-19T07:35:06;24.50;56.40
6627;DHT22;3349;49.830;8.748;2023-06-19T07:37:34;24.50;56.40
6627;DHT22;3349;49.830;8.748;2023-06-19T07:40:00;24.50;55.70
6627;DHT22;3349;49.830;8.748;2023-06-19T07:42:28;24.60;55.70
6627;DHT22;3349;49.830;8.748;2023-06-19T07:44:55;24.60;55.70
6627;DHT22;3349;49.830;8.748;2023-06-19T07:47:22;24.80;55.30
6627;DHT22;3349;49.830;8.748;2023-06-19T07:49:49;25.10;54.70
6627;DHT22;3349;49.830;8.748;2023-06-19T07:52:16;25.20;53.60
6627;DHT22;3349;49.830;8.748;2023-06-19T07:54:51;25.20;53.40
6627;DHT22;3349;49.830;8.748;2023-06-19T07:57:18;25.30;53.40
6627;DHT22;3349;49.830;8.748;2023-06-19T07:59:48;25.40;53.10
6627;DHT22;3349;49.830;8.748;2023-06-19T08:02:14;25.60;53.20
6627;DHT22;3349;49.830;8.748;2023-06-19T08:04:41;25.80;52.20
6627;DHT22;3349;49.830;8.748;2023-06-19T08:07:08;25.80;51.80
6627;DHT22;3349;49.830;8.748;2023-06-19T08:09:35;25.90;51.20
6627;DHT22;3349;49.830;8.748;2023-06-19T08:12:02;26.10;51.30
6627;DHT22;3349;49.830;8.748;2023-06-19T08:14:29;26.30;50.80
6627;DHT22;3349;49.830;8.748;2023-06-19T08:16:57;26.40;50.80
6627;DHT22;3349;49.830;8.748;2023-06-19T08:19:24;26.60;50.50
6627;DHT22;3349;49.830;8.748;2023-06-19T08:21:51;26.60;49.30
6627;DHT22;3349;49.830;8.748;2023-06-19T08:24:17;26.50;49.60
6627;DHT22;3349;49.830;8.748;2023-06-19T08:26:44;26.70;49.20
6627;DHT22;3349;49.830;8.748;2023-06-19T08:29:16;26.90;48.90
6627;DHT22;3349;49.830;8.748;2023-06-19T08:31:43;27.00;48.90
6627;DHT22;3349;49.830;8.748;2023-06-19T08:34:11;27.50;48.20
6627;DHT22;3349;49.830;8.748;2023-06-19T08:36:37;27.60;47.70
6627;DHT22;3349;49.830;8.748;2023-06-19T08:39:04;27.70;46.90
6627;DHT22;3349;49.830;8.748;2023-06-19T08:41:33;28.60;45.50
6627;DHT22;3349;49.830;8.748;2023-06-19T08:44:00;29.10;43.80
6627;DHT22;3349;49.830;8.748;2023-06-19T08:46:28;28.90;43.20
6627;DHT22;3349;49.830;8.748;2023-06-19T08:48:55;28.90;43.70
6627;DHT22;3349;49.830;8.748;2023-06-19T08:51:23;29.00;43.10
6627;DHT22;3349;49.830;8.748;2023-06-19T08:53:55;29.00;42.80
6627;DHT22;3349;49.830;8.748;2023-06-19T08:56:22;29.00;42.60
6627;DHT22;3349;49.830;8.748;2023-06-19T08:58:49;29.20;42.60
6627;DHT22;3349;49.830;8.748;2023-06-19T09:01:17;29.80;42.10
6627;DHT22;3349;49.830;8.748;2023-06-19T09:03:45;30.30;40.30
6627;DHT22;3349;49.830;8.748;2023-06-19T09:06:14;30.90;39.40
6627;DHT22;3349;49.830;8.748;2023-06-19T09:08:43;31.30;38.70
6627;DHT22;3349;49.830;8.748;2023-06-19T09:11:11;31.70;36.90
6627;DHT22;3349;49.830;8.748;2023-06-19T09:13:38;32.10;36.40
6627;DHT22;3349;49.830;8.748;2023-06-19T09:16:06;32.50;36.00
6627;DHT22;3349;49.830;8.748;2023-06-19T09:18:42;32.90;34.80
6627;DHT22;3349;49.830;8.748;2023-06-19T09:21:15;32.90;34.40
6627;DHT22;3349;49.830;8.748;2023-06-19T09:23:45;32.90;34.70
6627;DHT22;3349;49.830;8.748;2023-06-19T09:26:14;33.30;33.50
6627;DHT22;3349;49.830;8.748;2023-06-19T09:28:41;33.60;33.00
6627;DHT22;3349;49.830;8.748;2023-06-19T09:31:08;33.80;32.30
6627;DHT22;3349;49.830;8.748;2023-06-19T09:33:36;33.60;32.70
6627;DHT22;3349;49.830;8.748;2023-06-19T09:36:04;33.40;32.40
6627;DHT22;3349;49.830;8.748;2023-06-19T09:38:33;33.30;32.30
6627;DHT22;3349;49.830;8.748;2023-06-19T09:41:03;33.90;32.30
6627;DHT22;3349;49.830;8.748;2023-06-19T09:43:34;34.10;31.50
6627;DHT22;3349;49.830;8.748;2023-06-19T09:46:02;33.00;32.40
6627;DHT22;3349;49.830;8.748;2023-06-19T09:48:32;32.20;34.10
6627;DHT22;3349;49.830;8.748;2023-06-19T09:51:05;32.20;34.70
6627;DHT22;3349;49.830;8.748;2023-06-19T09:53:34;32.50;34.20
6627;DHT22;3349;49.830;8.748;2023-06-19T09:56:02;32.40;34.30
6627;DHT22;3349;49.830;8.748;2023-06-19T09:58:30;31.80;35.20
6627;DHT22;3349;49.830;8.748;2023-06-19T10:00:58;32.20;35.00
6627;DHT22;3349;49.830;8.748;2023-06-19T10:03:30;32.80;33.90
6627;DHT22;3349;49.830;8.748;2023-06-19T10:05:58;32.90;33.10
6627;DHT22;3349;49.830;8.748;2023-06-19T10:08:27;33.80;32.20
6627;DHT22;3349;49.830;8.748;2023-06-19T10:10:55;34.60;30.90
6627;DHT22;3349;49.830;8.748;2023-06-19T10:13:31;34.60;30.30
6627;DHT22;3349;49.830;8.748;2023-06-19T10:15:58;34.20;31.30
6627;DHT22;3349;49.830;8.748;2023-06-19T10:18:25;33.70;31.20
6627;DHT22;3349;49.830;8.748;2023-06-19T10:20:53;33.30;31.90
6627;DHT22;3349;49.830;8.748;2023-06-19T10:23:22;32.70;32.40
6627;DHT22;3349;49.830;8.748;2023-06-19T10:25:55;32.30;34.50
6627;DHT22;3349;49.830;8.748;2023-06-19T10:28:25;32.90;33.80
6627;DHT22;3349;49.830;8.748;2023-06-19T10:30:53;33.30;32.10
6627;DHT22;3349;49.830;8.748;2023-06-19T10:33:21;32.90;32.50
6627;DHT22;3349;49.830;8.748;2023-06-19T10:35:47;32.80;32.80
6627;DHT22;3349;49.830;8.748;2023-06-19T10:38:14;32.90;32.30
6627;DHT22;3349;49.830;8.748;2023-06-19T10:40:42;32.40;32.30
6627;DHT22;3349;49.830;8.748;2023-06-19T10:43:09;32.00;33.40
6627;DHT22;3349;49.830;8.748;2023-06-19T10:45:37;31.20;35.20
6627;DHT22;3349;49.830;8.748;2023-06-19T10:48:05;31.30;36.20
6627;DHT22;3349;49.830;8.748;2023-06-19T10:50:34;31.30;35.90
6627;DHT22;3349;49.830;8.748;2023-06-19T10:53:01;31.40;35.60
6627;DHT22;3349;49.830;8.748;2023-06-19T10:55:28;31.40;35.70
6627;DHT22;3349;49.830;8.748;2023-06-19T10:57:55;31.30;35.70
6627;DHT22;3349;49.830;8.748;2023-06-19T11:00:24;32.00;35.50
6627;DHT22;3349;49.830;8.748;2023-06-19T11:02:52;32.30;33.70
6627;DHT22;3349;49.830;8.748;2023-06-19T11:05:23;32.60;33.40
6627;DHT22;3349;49.830;8.748;2023-06-19T11:07:51;32.60;33.10
6627;DHT22;3349;49.830;8.748;2023-06-19T11:10:19;32.50;33.00
6627;DHT22;3349;49.830;8.748;2023-06-19T11:12:48;31.90;34.10
6627;DHT22;3349;49.830;8.748;2023-06-19T11:15:14;31.50;34.50
6627;DHT22;3349;49.830;8.748;2023-06-19T11:17:41;31.10;35.90
6627;DHT22;3349;49.830;8.748;2023-06-19T11:20:11;31.00;35.50
6627;DHT22;3349;49.830;8.748;2023-06-19T11:22:40;30.80;35.40
6627;DHT22;3349;49.830;8.748;2023-06-19T11:25:08;30.40;35.20
6627;DHT22;3349;49.830;8.748;2023-06-19T11:27:38;30.40;36.10
6627;DHT22;3349;49.830;8.748;2023-06-19T11:30:06;30.60;35.60
6627;DHT22;3349;49.830;8.748;2023-06-19T11:32:36;30.70;35.40
6627;DHT22;3349;49.830;8.748;2023-06-19T11:35:08;30.90;34.90
6627;DHT22;3349;49.830;8.748;2023-06-19T11:37:36;31.30;34.80
6627;DHT22;3349;49.830;8.748;2023-06-19T11:40:04;31.20;34.10
6627;DHT22;3349;49.830;8.748;2023-06-19T11:42:52;31.30;33.60
6627;DHT22;3349;49.830;8.748;2023-06-19T11:45:20;31.50;33.80
6627;DHT22;3349;49.830;8.748;2023-06-19T11:47:49;31.50;34.20
6627;DHT22;3349;49.830;8.748;2023-06-19T11:50:16;31.60;34.00
6627;DHT22;3349;49.830;8.748;2023-06-19T11:52:46;32.70;33.00
6627;DHT22;3349;49.830;8.748;2023-06-19T11:55:13;33.40;32.00
6627;DHT22;3349;49.830;8.748;2023-06-19T11:57:41;34.30;30.50
6627;DHT22;3349;49.830;8.748;2023-06-19T12:00:14;34.30;30.10
6627;DHT22;3349;49.830;8.748;2023-06-19T12:02:41;34.50;29.30
6627;DHT22;3349;49.830;8.748;2023-06-19T12:05:08;34.80;28.70
6627;DHT22;3349;49.830;8.748;2023-06-19T12:07:36;35.00;28.80
6627;DHT22;3349;49.830;8.748;2023-06-19T12:10:05;35.50;28.00
6627;DHT22;3349;49.830;8.748;2023-06-19T12:12:35;35.90;26.80
6627;DHT22;3349;49.830;8.748;2023-06-19T12:15:02;35.80;25.30
6627;DHT22;3349;49.830;8.748;2023-06-19T12:17:29;35.70;25.60
6627;DHT22;3349;49.830;8.748;2023-06-19T12:19:56;35.80;24.90
6627;DHT22;3349;49.830;8.748;2023-06-19T12:22:23;35.60;25.60
6627;DHT22;3349;49.830;8.748;2023-06-19T12:24:50;35.60;25.70
6627;DHT22;3349;49.830;8.748;2023-06-19T12:27:18;35.50;26.20
6627;DHT22;3349;49.830;8.748;2023-06-19T12:29:45;35.40;26.20
6627;DHT22;3349;49.830;8.748;2023-06-19T12:32:12;34.90;26.60
6627;DHT22;3349;49.830;8.748;2023-06-19T12:34:39;34.60;26.90
6627;DHT22;3349;49.830;8.748;2023-06-19T12:37:12;34.00;27.80
6627;DHT22;3349;49.830;8.748;2023-06-19T12:39:40;33.20;29.10
6627;DHT22;3349;49.830;8.748;2023-06-19T12:42:07;32.80;29.80
6627;DHT22;3349;49.830;8.748;2023-06-19T12:44:35;32.10;30.90
6627;DHT22;3349;49.830;8.748;2023-06-19T12:47:02;32.10;31.10
6627;DHT22;3349;49.830;8.748;2023-06-19T12:49:30;32.10;31.20
6627;DHT22;3349;49.830;8.748;2023-06-19T12:51:57;32.60;31.50
6627;DHT22;3349;49.830;8.748;2023-06-19T12:54:24;32.60;30.00
6627;DHT22;3349;49.830;8.748;2023-06-19T12:56:50;32.90;29.80
6627;DHT22;3349;49.830;8.748;2023-06-19T12:59:17;32.40;29.80
6627;DHT22;3349;49.830;8.748;2023-06-19T13:01:46;32.30;30.10
6627;DHT22;3349;49.830;8.748;2023-06-19T13:04:13;32.10;30.50
6627;DHT22;3349;49.830;8.748;2023-06-19T13:06:40;32.00;31.10
6627;DHT22;3349;49.830;8.748;2023-06-19T13:09:07;31.80;30.90
6627;DHT22;3349;49.830;8.748;2023-06-19T13:11:34;31.60;30.90
6627;DHT22;3349;49.830;8.748;2023-06-19T13:14:02;31.20;30.40
6627;DHT22;3349;49.830;8.748;2023-06-19T13:16:30;31.20;30.60
6627;DHT22;3349;49.830;8.748;2023-06-19T13:18:58;31.20;31.40
6627;DHT22;3349;49.830;8.748;2023-06-19T13:21:25;30.90;31.60
6627;DHT22;3349;49.830;8.748;2023-06-19T13:23:51;30.90;32.10
6627;DHT22;3349;49.830;8.748;2023-06-19T13:26:18;30.70;31.80
6627;DHT22;3349;49.830;8.748;2023-06-19T13:28:45;30.70;31.60
6627;DHT22;3349;49.830;8.748;2023-06-19T13:31:11;30.60;31.90
6627;DHT22;3349;49.830;8.748;2023-06-19T13:33:38;30.30;31.60
6627;DHT22;3349;49.830;8.748;2023-06-19T13:36:06;30.50;32.60
6627;DHT22;3349;49.830;8.748;2023-06-19T13:38:33;30.60;32.40
6627;DHT22;3349;49.830;8.748;2023-06-19T13:41:00;30.80;31.70
6627;DHT22;3349;49.830;8.748;2023-06-19T13:43:26;30.80;31.10
6627;DHT22;3349;49.830;8.748;2023-06-19T13:45:53;30.90;31.60
6627;DHT22;3349;49.830;8.748;2023-06-19T13:48:20;30.80;32.20
6627;DHT22;3349;49.830;8.748;2023-06-19T13:50:47;31.10;32.00
6627;DHT22;3349;49.830;8.748;2023-06-19T13:53:15;31.30;32.60
6627;DHT22;3349;49.830;8.748;2023-06-19T13:55:42;31.10;31.10
6627;DHT22;3349;49.830;8.748;2023-06-19T13:58:09;31.50;31.20
6627;DHT22;3349;49.830;8.748;2023-06-19T14:00:35;31.50;30.80
6627;DHT22;3349;49.830;8.748;2023-06-19T14:03:02;31.40;30.70
6627;DHT22;3349;49.830;8.748;2023-06-19T14:05:31;31.50;30.80
6627;DHT22;3349;49.830;8.748;2023-06-19T14:07:59;31.80;31.70
6627;DHT22;3349;49.830;8.748;2023-06-19T14:10:27;32.00;29.90
6627;DHT22;3349;49.830;8.748;2023-06-19T14:12:54;32.20;29.70
6627;DHT22;3349;49.830;8.748;2023-06-19T14:15:21;32.50;29.30
6627;DHT22;3349;49.830;8.748;2023-06-19T14:17:47;32.50;28.90
6627;DHT22;3349;49.830;8.748;2023-06-19T14:20:14;32.40;29.40
6627;DHT22;3349;49.830;8.748;2023-06-19T14:22:41;32.10;29.00
6627;DHT22;3349;49.830;8.748;2023-06-19T14:25:08;31.60;29.70
6627;DHT22;3349;49.830;8.748;2023-06-19T14:27:37;31.30;30.60
6627;DHT22;3349;49.830;8.748;2023-06-19T14:30:05;31.30;30.60
6627;DHT22;3349;49.830;8.748;2023-06-19T14:32:34;31.20;30.60
6627;DHT22;3349;49.830;8.748;2023-06-19T14:35:01;31.10;30.50
6627;DHT22;3349;49.830;8.748;2023-06-19T14:37:28;30.70;31.00
6627;DHT22;3349;49.830;8.748;2023-06-19T14:39:55;30.90;31.50
6627;DHT22;3349;49.830;8.748;2023-06-19T14:42:22;30.80;31.80
6627;DHT22;3349;49.830;8.748;2023-06-19T14:44:50;30.90;32.00
6627;DHT22;3349;49.830;8.748;2023-06-19T14:47:16;31.40;31.30
6627;DHT22;3349;49.830;8.748;2023-06-19T14:49:43;31.70;30.90
6627;DHT22;3349;49.830;8.748;2023-06-19T14:52:10;32.10;30.90
6627;DHT22;3349;49.830;8.748;2023-06-19T14:54:37;32.40;30.40
6627;DHT22;3349;49.830;8.748;2023-06-19T14:57:04;32.70;30.00
6627;DHT22;3349;49.830;8.748;2023-06-19T14:59:31;32.60;29.60
6627;DHT22;3349;49.830;8.748;2023-06-19T15:01:59;32.40;30.00
6627;DHT22;3349;49.830;8.748;2023-06-19T15:04:27;32.30;29.70
6627;DHT22;3349;49.830;8.748;2023-06-19T15:06:54;31.90;30.10
6627;DHT22;3349;49.830;8.748;2023-06-19T15:09:21;31.50;30.80
6627;DHT22;3349;49.830;8.748;2023-06-19T15:11:48;31.00;30.80
6627;DHT22;3349;49.830;8.748;2023-06-19T15:14:14;30.70;32.00
6627;DHT22;3349;49.830;8.748;2023-06-19T15:16:42;30.60;32.40
6627;DHT22;3349;49.830;8.748;2023-06-19T15:19:10;30.80;32.10
6627;DHT22;3349;49.830;8.748;2023-06-19T15:21:37;30.90;32.10
6627;DHT22;3349;49.830;8.748;2023-06-19T15:24:04;30.80;31.90
6627;DHT22;3349;49.830;8.748;2023-06-19T15:26:31;30.80;32.10
6627;DHT22;3349;49.830;8.748;2023-06-19T15:28:58;30.50;31.90
6627;DHT22;3349;49.830;8.748;2023-06-19T15:31:26;30.50;33.00
6627;DHT22;3349;49.830;8.748;2023-06-19T15:33:53;30.20;32.60
6627;DHT22;3349;49.830;8.748;2023-06-19T15:36:21;30.00;34.40
6627;DHT22;3349;49.830;8.748;2023-06-19T15:38:47;29.90;34.00
6627;DHT22;3349;49.830;8.748;2023-06-19T15:41:14;29.80;34.70
6627;DHT22;3349;49.830;8.748;2023-06-19T15:43:41;29.80;35.00
6627;DHT22;3349;49.830;8.748;2023-06-19T15:46:08;29.90;34.60
6627;DHT22;3349;49.830;8.748;2023-06-19T15:48:35;29.90;35.20
6627;DHT22;3349;49.830;8.748;2023-06-19T15:51:02;30.00;36.00
6627;DHT22;3349;49.830;8.748;2023-06-19T15:53:30;30.20;34.50
6627;DHT22;3349;49.830;8.748;2023-06-19T15:55:57;30.40;34.30
6627;DHT22;3349;49.830;8.748;2023-06-19T15:58:24;30.50;33.60
6627;DHT22;3349;49.830;8.748;2023-06-19T16:00:51;30.50;33.50
6627;DHT22;3349;49.830;8.748;2023-06-19T16:03:18;30.60;33.00